Time;durP1;ratioP1;P1;durP2;ratioP2;P2;SDS_P1;SDS_P2;PMS_P1;PMS_P2;Temp;Humidity;BMP_temperature;BMP_pressure;BME280_temperature;BME280_humidity;BME280_pressure;Samples;Min_cycle;Max_cycle;Signal;HPM_P1;HPM_P2
2022/08/03 00:02:12;;;;;;;0.80;0.80;;;18.30;99.90;;;;;;5221226;28;20033;-60
2022/08/03 00:04:46;;;;;;;1.17;1.00;;;18.40;99.90;;;;;;5210751;28;20052;-60
2022/08/03 00:07:17;;;;;;;0.85;0.85;;;18.40;99.90;;;;;;5221660;28;20036;-60
2022/08/03 00:09:51;;;;;;;0.95;0.73;;;18.40;99.90;;;;;;5222258;28;20029;-60
2022/08/03 00:12:27;;;;;;;0.80;0.80;;;18.40;99.90;;;;;;5220422;28;20234;-60
2022/08/03 00:15:01;;;;;;;1.10;0.90;;;18.50;99.90;;;;;;5239722;28;20310;-61
2022/08/03 00:17:35;;;;;;;1.00;0.90;;;18.50;99.90;;;;;;5238771;28;20037;-61
2022/08/03 00:20:07;;;;;;;1.20;1.08;;;18.50;99.90;;;;;;5238124;28;20298;-61
2022/08/03 00:22:40;;;;;;;0.95;0.90;;;18.50;99.90;;;;;;5239245;28;20020;-61
2022/08/03 00:25:12;;;;;;;1.60;1.02;;;18.50;99.90;;;;;;5204437;28;20033;-60
2022/08/03 00:27:44;;;;;;;1.67;0.77;;;18.50;99.90;;;;;;5220654;28;20025;-60
2022/08/03 00:30:18;;;;;;;0.88;0.80;;;18.60;99.90;;;;;;5238971;28;20055;-62
2022/08/03 00:32:52;;;;;;;1.10;1.00;;;18.70;99.90;;;;;;5220654;28;20029;-61
2022/08/03 00:35:36;;;;;;;0.80;0.80;;;18.70;99.90;;;;;;5238690;28;20031;-60
2022/08/03 00:38:08;;;;;;;0.88;0.77;;;18.70;99.90;;;;;;5238881;28;20214;-60
2022/08/03 00:40:42;;;;;;;0.88;0.88;;;18.50;99.90;;;;;;5220371;28;20332;-60
2022/08/03 00:43:13;;;;;;;1.08;0.98;;;18.40;99.90;;;;;;5221550;28;20028;-60
2022/08/03 00:45:46;;;;;;;0.95;0.85;;;18.40;99.90;;;;;;5239284;28;20024;-62
2022/08/03 00:48:20;;;;;;;1.73;1.30;;;18.40;99.90;;;;;;5238026;28;20031;-60
2022/08/03 00:50:52;;;;;;;4.43;1.10;;;18.30;99.90;;;;;;5238540;28;20024;-60
2022/08/03 00:53:24;;;;;;;1.88;1.02;;;18.20;99.90;;;;;;5187604;28;20035;-60
2022/08/03 00:55:56;;;;;;;1.10;1.00;;;18.10;99.90;;;;;;5203699;28;20221;-60
2022/08/03 00:58:27;;;;;;;1.20;1.10;;;18.00;99.90;;;;;;5239065;28;20025;-61
2022/08/03 01:00:58;;;;;;;0.90;0.90;;;18.00;99.90;;;;;;5239289;28;20020;-60
2022/08/03 01:03:30;;;;;;;0.90;0.90;;;18.00;99.90;;;;;;5201362;28;20037;-60
2022/08/03 01:06:12;;;;;;;0.80;0.80;;;17.90;99.90;;;;;;5211110;28;20061;-60
2022/08/03 01:09:00;;;;;;;0.95;0.90;;;18.00;99.90;;;;;;5218829;28;20218;-60
2022/08/03 01:11:35;;;;;;;0.80;0.80;;;18.00;99.90;;;;;;5203770;28;20037;-60
2022/08/03 01:14:12;;;;;;;;;;;18.00;99.90;;;;;;5221126;28;20035;-60
2022/08/03 01:16:58;;;;;;;0.93;0.90;;;18.10;99.90;;;;;;5221554;28;19975;-60
2022/08/03 01:19:51;;;;;;;1.33;0.90;;;18.10;99.90;;;;;;5236349;28;20021;-60
2022/08/03 01:22:36;;;;;;;1.10;0.90;;;18.10;99.90;;;;;;5237548;28;20023;-60
2022/08/03 01:25:32;;;;;;;0.75;0.75;;;18.10;99.90;;;;;;5235892;28;20027;-61
2022/08/03 01:28:41;;;;;;;1.23;1.13;;;18.00;99.90;;;;;;5236790;28;20032;-60
2022/08/03 01:31:20;;;;;;;0.90;0.90;;;18.00;99.90;;;;;;5242577;28;20036;-60
2022/08/03 01:34:00;;;;;;;1.85;1.02;;;18.00;99.90;;;;;;5241978;28;20021;-60
2022/08/03 01:36:37;;;;;;;0.80;0.80;;;18.10;99.90;;;;;;5225178;28;20028;-60
2022/08/03 01:39:08;;;;;;;1.13;0.90;;;18.00;99.90;;;;;;5241731;28;20021;-60
2022/08/03 01:41:47;;;;;;;0.85;0.85;;;18.00;99.90;;;;;;5224879;28;20035;-60
2022/08/03 01:44:20;;;;;;;1.88;1.10;;;18.00;99.90;;;;;;5224382;28;20027;-60
2022/08/03 01:46:53;;;;;;;1.03;0.90;;;17.90;99.90;;;;;;5242270;28;20051;-61
2022/08/03 01:49:27;;;;;;;1.05;0.88;;;17.90;99.90;;;;;;5242484;28;20257;-60
2022/08/03 01:55:32;;;;;;;1.08;1.00;;;17.70;99.90;;;;;;5242424;28;20176;-60
2022/08/03 01:58:07;;;;;;;2.40;1.20;;;17.70;99.90;;;;;;5222708;28;20249;-60
2022/08/03 02:00:48;;;;;;;1.30;1.20;;;17.70;99.90;;;;;;5242925;28;20298;-60
2022/08/03 02:03:21;;;;;;;1.75;1.20;;;17.70;99.90;;;;;;5241084;28;20221;-60
2022/08/03 02:05:54;;;;;;;1.30;1.20;;;17.60;99.90;;;;;;5241694;28;20020;-60
2022/08/03 02:08:27;;;;;;;1.10;1.00;;;17.60;99.90;;;;;;5224687;28;20040;-60
2022/08/03 02:11:00;;;;;;;1.13;1.02;;;17.60;99.90;;;;;;5224215;28;20209;-61
2022/08/03 02:13:36;;;;;;;1.77;1.33;;;17.50;99.90;;;;;;5241574;28;20214;-60
2022/08/03 02:16:51;;;;;;;1.50;1.00;;;17.40;99.90;;;;;;5210715;28;20043;-59
2022/08/03 02:19:26;;;;;;;1.33;1.23;;;17.40;99.90;;;;;;5243478;28;20298;-60
2022/08/03 02:21:58;;;;;;;1.80;1.30;;;17.40;99.90;;;;;;5242772;28;20076;-59
2022/08/03 02:24:36;;;;;;;2.15;1.20;;;17.30;99.90;;;;;;5240420;28;20043;-60
2022/08/03 02:27:24;;;;;;;1.38;1.20;;;17.20;99.90;;;;;;5223781;28;20043;-60
2022/08/03 02:30:05;;;;;;;1.67;1.42;;;17.20;99.90;;;;;;5241864;28;20027;-60
2022/08/03 02:32:39;;;;;;;1.65;1.30;;;17.10;99.90;;;;;;5222509;28;20029;-61
2022/08/03 02:35:15;;;;;;;1.52;1.17;;;17.00;99.90;;;;;;5241411;28;20021;-60
2022/08/03 02:37:51;;;;;;;1.15;1.05;;;17.00;99.90;;;;;;5223445;28;20037;-60
2022/08/03 02:40:29;;;;;;;1.83;1.23;;;17.10;99.90;;;;;;5223901;28;20041;-60
2022/08/03 02:43:16;;;;;;;2.03;1.48;;;17.10;99.90;;;;;;5241658;28;20025;-61
2022/08/03 02:49:22;;;;;;;1.70;1.50;;;17.00;99.90;;;;;;5239858;28;20017;-60
2022/08/03 02:51:57;;;;;;;1.13;1.00;;;17.00;99.90;;;;;;5234135;28;20290;-60
2022/08/03 02:54:36;;;;;;;1.70;1.38;;;16.90;99.90;;;;;;5240856;28;20024;-60
2022/08/03 02:57:11;;;;;;;1.52;1.33;;;16.80;99.90;;;;;;5222712;28;20048;-61
2022/08/03 02:59:53;;;;;;;1.60;1.20;;;16.80;99.90;;;;;;5207317;28;20043;-61
2022/08/03 03:02:30;;;;;;;1.30;1.20;;;16.70;99.90;;;;;;5240115;28;20171;-60
2022/08/03 03:05:07;;;;;;;1.52;1.42;;;16.60;99.90;;;;;;5214338;28;20046;-62
2022/08/03 03:07:39;;;;;;;2.50;1.48;;;16.60;99.90;;;;;;5222114;28;20016;-60
2022/08/03 03:10:14;;;;;;;0.95;0.90;;;16.60;99.90;;;;;;5223732;28;20033;-60
2022/08/03 03:12:54;;;;;;;1.67;1.50;;;16.60;99.90;;;;;;5240725;28;20220;-62
2022/08/03 03:15:34;;;;;;;1.58;1.35;;;16.60;99.90;;;;;;5241130;28;20025;-61
2022/08/03 03:18:09;;;;;;;1.30;1.20;;;16.60;99.90;;;;;;5222304;28;20029;-60
2022/08/03 03:20:41;;;;;;;1.92;1.45;;;16.60;99.90;;;;;;5239147;28;20025;-60
2022/08/03 03:23:13;;;;;;;1.85;1.33;;;16.50;99.90;;;;;;5239113;28;20036;-60
2022/08/03 03:25:45;;;;;;;1.42;1.33;;;16.50;99.90;;;;;;5220947;28;20036;-60
2022/08/03 03:28:24;;;;;;;1.50;1.40;;;16.40;99.90;;;;;;5239248;28;20043;-60
2022/08/03 03:30:59;;;;;;;2.33;1.67;;;16.50;99.90;;;;;;5222681;28;20037;-61
2022/08/03 03:33:33;;;;;;;1.50;1.40;;;16.50;99.90;;;;;;5240377;28;20025;-61
2022/08/03 03:36:06;;;;;;;1.48;1.38;;;16.60;99.90;;;;;;5240904;28;20190;-61
2022/08/03 03:38:37;;;;;;;1.50;1.30;;;16.60;99.90;;;;;;5204966;28;20199;-61
2022/08/03 03:41:09;;;;;;;1.70;1.50;;;16.60;99.90;;;;;;5239690;28;20035;-61
2022/08/03 03:43:40;;;;;;;1.40;1.30;;;16.60;99.90;;;;;;5223183;28;20321;-61
2022/08/03 03:46:17;;;;;;;1.70;1.27;;;16.70;99.90;;;;;;5239519;28;20024;-61
2022/08/03 03:48:51;;;;;;;2.97;1.90;;;16.80;99.90;;;;;;5218839;28;20031;-60
2022/08/03 03:51:22;;;;;;;2.33;1.40;;;16.80;99.90;;;;;;5239674;28;20021;-62
2022/08/03 03:54:01;;;;;;;1.60;1.38;;;17.00;99.90;;;;;;5222018;28;20225;-60
2022/08/03 03:56:32;;;;;;;1.48;1.08;;;17.00;99.90;;;;;;5221114;28;20162;-61
2022/08/03 03:59:03;;;;;;;1.70;1.50;;;17.00;99.90;;;;;;5222730;28;20036;-60
2022/08/03 04:01:35;;;;;;;1.40;1.30;;;17.10;99.90;;;;;;5205764;28;20029;-61
2022/08/03 04:12:43;;;;;;;1.40;1.30;;;17.50;99.90;;;;;;5221543;28;20041;-61
2022/08/03 04:15:15;;;;;;;2.22;1.92;;;17.70;99.90;;;;;;5239645;28;20028;-62
2022/08/03 04:17:49;;;;;;;2.85;2.05;;;17.90;99.90;;;;;;5238903;28;20031;-62
2022/08/03 04:20:22;;;;;;;1.57;1.33;;;18.20;99.90;;;;;;5205359;28;20063;-62
2022/08/03 04:22:59;;;;;;;1.85;1.50;;;18.40;99.90;;;;;;5237942;28;20028;-63
2022/08/03 04:25:36;;;;;;;2.05;1.33;;;18.60;99.90;;;;;;5204240;28;20028;-62
2022/08/03 04:28:08;;;;;;;1.38;1.05;;;18.80;99.90;;;;;;5221248;28;20033;-62
2022/08/03 04:30:46;;;;;;;1.52;1.23;;;19.00;99.90;;;;;;5238151;28;20035;-62
2022/08/03 04:33:22;;;;;;;2.13;1.27;;;19.10;99.90;;;;;;5204588;28;20195;-62
2022/08/03 04:35:57;;;;;;;1.40;1.30;;;19.20;99.90;;;;;;5222456;28;20029;-62
2022/08/03 04:38:34;;;;;;;1.73;1.40;;;19.30;99.90;;;;;;5238915;28;20062;-63
2022/08/03 04:41:06;;;;;;;2.05;1.25;;;19.40;99.90;;;;;;5204585;28;20033;-63
2022/08/03 04:43:41;;;;;;;1.77;1.40;;;19.50;99.90;;;;;;5237173;28;20113;-63
2022/08/03 04:49:40;;;;;;;1.13;1.02;;;19.90;99.90;;;;;;5239187;28;20027;-62
2022/08/03 04:52:11;;;;;;;1.25;1.10;;;20.10;99.90;;;;;;5205203;28;20037;-62
2022/08/03 04:54:46;;;;;;;2.33;1.23;;;20.30;99.90;;;;;;5238779;28;20025;-62
2022/08/03 04:57:21;;;;;;;1.23;1.13;;;20.50;99.90;;;;;;5220095;28;20051;-62
2022/08/03 04:59:53;;;;;;;4.07;1.23;;;20.70;99.90;;;;;;5239067;28;20033;-62
2022/08/03 05:02:30;;;;;;;2.15;1.45;;;20.80;99.90;;;;;;5220097;28;20337;-61
2022/08/03 05:05:01;;;;;;;1.80;1.17;;;20.90;99.90;;;;;;5228229;28;20055;-61
2022/08/03 05:07:37;;;;;;;1.23;1.10;;;21.10;99.90;;;;;;5204727;28;20214;-62
2022/08/03 05:10:12;;;;;;;1.00;1.00;;;21.20;99.90;;;;;;5238919;28;20077;-62
2022/08/03 05:12:48;;;;;;;1.45;1.10;;;21.40;99.90;;;;;;5220179;28;20037;-62
2022/08/03 05:18:44;;;;;;;1.08;0.98;;;21.80;99.90;;;;;;5239380;28;20028;-61
2022/08/03 05:21:16;;;;;;;0.80;0.80;;;22.00;99.90;;;;;;5238890;28;20021;-63
2022/08/03 05:23:49;;;;;;;1.17;1.08;;;22.30;99.90;;;;;;5220306;28;20039;-62
2022/08/03 05:26:21;;;;;;;0.82;0.80;;;22.60;99.90;;;;;;5238928;28;20021;-64
2022/08/03 05:28:54;;;;;;;1.38;1.27;;;23.00;99.90;;;;;;5219444;28;20035;-63
2022/08/03 05:31:26;;;;;;;3.30;0.98;;;23.00;99.90;;;;;;5238882;28;20214;-62
2022/08/03 05:33:57;;;;;;;1.25;1.10;;;23.30;99.90;;;;;;5237617;28;20336;-63
2022/08/03 05:36:28;;;;;;;3.13;1.30;;;23.70;99.90;;;;;;5238254;28;20021;-62
2022/08/03 05:38:59;;;;;;;1.95;1.48;;;23.80;99.90;;;;;;5237158;28;20035;-62
2022/08/03 05:41:33;;;;;;;0.90;0.90;;;24.10;99.90;;;;;;5238638;28;20332;-62
2022/08/03 05:44:06;;;;;;;2.63;1.00;;;24.40;99.90;;;;;;5237805;28;20031;-62
2022/08/03 05:46:40;;;;;;;1.40;1.30;;;24.70;99.90;;;;;;5220324;28;20262;-63
2022/08/03 05:49:11;;;;;;;5.20;1.35;;;24.90;99.90;;;;;;5191237;28;20040;-62
2022/08/03 05:51:42;;;;;;;1.40;1.00;;;25.10;99.90;;;;;;5239860;28;20029;-63
2022/08/03 05:54:14;;;;;;;1.33;1.23;;;25.30;99.90;;;;;;5238385;28;20016;-63
2022/08/03 05:56:45;;;;;;;1.92;1.15;;;25.70;99.90;;;;;;5220867;28;20029;-63
2022/08/03 05:59:18;;;;;;;1.38;0.93;;;26.10;99.90;;;;;;5218970;28;20047;-62
2022/08/03 06:01:51;;;;;;;1.48;1.38;;;26.20;99.90;;;;;;5220702;28;20029;-63
2022/08/03 06:04:23;;;;;;;1.30;1.17;;;26.50;99.90;;;;;;5206206;28;20028;-64
2022/08/03 06:06:54;;;;;;;0.98;0.98;;;26.80;99.90;;;;;;5198355;28;20040;-63
2022/08/03 06:09:25;;;;;;;1.23;1.13;;;27.30;99.90;;;;;;5236553;28;20033;-62
2022/08/03 06:11:56;;;;;;;4.07;1.10;;;27.30;99.90;;;;;;5218118;28;20039;-63
2022/08/03 06:14:32;;;;;;;1.85;1.00;;;27.30;99.90;;;;;;5199039;28;20021;-62
2022/08/03 06:17:06;;;;;;;1.60;1.50;;;27.40;99.90;;;;;;5200609;28;20033;-63
2022/08/03 06:19:40;;;;;;;1.23;0.95;;;27.70;99.90;;;;;;5219586;28;20040;-64
2022/08/03 06:22:14;;;;;;;1.65;1.30;;;28.10;99.90;;;;;;5202147;28;20037;-63
2022/08/03 06:24:45;;;;;;;2.20;1.20;;;28.60;99.90;;;;;;5219288;28;20025;-64
2022/08/03 06:27:19;;;;;;;1.00;1.00;;;28.90;99.90;;;;;;5203062;28;20040;-62
2022/08/03 06:29:50;;;;;;;1.10;1.02;;;28.60;99.90;;;;;;5220876;28;20032;-62
2022/08/03 06:32:26;;;;;;;1.95;1.17;;;28.00;99.90;;;;;;5219109;28;20021;-61
2022/08/03 06:35:05;;;;;;;1.00;0.90;;;28.60;99.90;;;;;;5221089;28;20028;-61
2022/08/03 06:37:44;;;;;;;1.63;1.10;;;28.80;99.90;;;;;;5221546;28;20298;-63
2022/08/03 06:40:17;;;;;;;1.50;1.20;;;28.70;99.90;;;;;;5188732;28;20033;-61
2022/08/03 06:42:49;;;;;;;1.40;1.27;;;28.90;99.90;;;;;;5181774;28;20021;-63
2022/08/03 06:45:20;;;;;;;3.75;1.30;;;28.80;99.90;;;;;;5200445;28;20071;-62
2022/08/03 06:48:05;;;;;;;1.67;1.20;;;28.90;99.90;;;;;;5220733;28;20029;-62
2022/08/03 06:50:38;;;;;;;1.58;1.40;;;29.50;99.90;;;;;;5192796;28;20021;-64
2022/08/03 06:53:12;;;;;;;1.65;1.55;;;29.50;99.90;;;;;;5215798;28;20024;-64
2022/08/03 06:55:43;;;;;;;1.52;1.42;;;29.50;99.90;;;;;;5213822;28;20045;-61
2022/08/03 06:58:17;;;;;;;1.90;1.40;;;29.60;99.90;;;;;;5191754;28;20060;-62
2022/08/03 07:00:51;;;;;;;1.85;1.67;;;29.90;99.90;;;;;;5212537;28;20025;-62
2022/08/03 07:03:23;;;;;;;1.42;1.33;;;30.00;99.90;;;;;;5219363;28;20029;-61
2022/08/03 07:05:54;;;;;;;1.95;1.30;;;29.90;99.90;;;;;;5199359;28;20055;-62
2022/08/03 07:08:26;;;;;;;2.28;1.80;;;30.10;99.90;;;;;;5197082;28;20029;-62
2022/08/03 07:11:02;;;;;;;4.47;1.65;;;30.50;99.90;;;;;;5197625;28;20027;-64
2022/08/03 07:13:41;;;;;;;1.58;1.40;;;30.30;99.90;;;;;;5191772;28;20286;-61
2022/08/03 07:16:13;;;;;;;1.30;1.20;;;30.30;99.90;;;;;;5215763;28;20142;-61
2022/08/03 07:18:44;;;;;;;1.70;1.60;;;30.30;99.90;;;;;;5192914;28;20557;-63
2022/08/03 07:21:21;;;;;;;2.10;1.40;;;30.40;99.90;;;;;;5197579;28;20391;-62
2022/08/03 07:23:53;;;;;;;1.70;1.38;;;30.60;99.90;;;;;;5211289;28;20028;-62
2022/08/03 07:26:26;;;;;;;1.40;1.30;;;30.50;99.90;;;;;;5214941;28;20029;-62
2022/08/03 07:28:59;;;;;;;1.92;1.70;;;30.20;99.90;;;;;;5199374;28;20040;-61
2022/08/03 07:31:30;;;;;;;2.33;1.48;;;30.00;99.90;;;;;;5194709;28;20299;-62
2022/08/03 07:34:01;;;;;;;1.35;1.17;;;29.90;99.90;;;;;;5197177;28;20023;-63
2022/08/03 07:36:33;;;;;;;1.40;1.30;;;30.10;99.90;;;;;;5203682;28;20021;-62
2022/08/03 07:39:04;;;;;;;2.65;1.13;;;30.40;99.90;;;;;;5195425;28;20047;-63
2022/08/03 07:41:43;;;;;;;3.05;1.33;;;30.50;99.90;;;;;;5194172;28;20048;-62
2022/08/03 07:44:14;;;;;;;0.98;0.90;;;30.40;99.90;;;;;;5229382;28;20021;-63
2022/08/03 07:46:45;;;;;;;1.55;1.30;;;30.70;99.90;;;;;;5230809;28;20286;-62
2022/08/03 07:49:16;;;;;;;1.80;1.30;;;31.10;99.90;;;;;;5216062;28;20027;-61
2022/08/03 07:52:46;;;;;;;2.47;1.27;;;31.20;99.90;;;;;;5198365;28;20234;-64
2022/08/03 07:54:39;;;;;;;1.40;1.30;;;31.40;99.90;;;;;;5204242;28;20214;-62
2022/08/03 07:57:10;;;;;;;1.75;1.35;;;31.70;99.90;;;;;;5215550;28;20255;-62
2022/08/03 07:59:41;;;;;;;1.80;1.35;;;31.30;99.90;;;;;;5197878;28;20041;-63
2022/08/03 08:02:18;;;;;;;1.35;1.25;;;30.70;99.90;;;;;;5216424;28;20029;-61
2022/08/03 08:04:52;;;;;;;1.42;0.90;;;30.00;99.90;;;;;;5170808;28;20055;-62
2022/08/03 08:07:26;;;;;;;1.30;1.20;;;29.80;99.90;;;;;;5214423;28;20024;-62
2022/08/03 08:09:57;;;;;;;2.55;1.42;;;30.30;99.90;;;;;;5180477;28;20194;-63
2022/08/03 08:12:31;;;;;;;1.90;1.20;;;30.20;99.90;;;;;;5216217;28;20039;-62
2022/08/03 08:15:05;;;;;;;5.40;1.40;;;30.50;99.90;;;;;;5215976;28;20021;-61
2022/08/03 08:17:52;;;;;;;1.40;1.30;;;30.80;99.90;;;;;;5215208;28;20250;-61
2022/08/03 08:20:28;;;;;;;2.38;1.50;;;30.50;99.90;;;;;;5216177;28;20374;-63
2022/08/03 08:23:05;;;;;;;1.17;1.08;;;31.10;99.90;;;;;;5212227;28;20112;-62
2022/08/03 08:25:38;;;;;;;1.35;1.25;;;31.70;99.90;;;;;;5227759;28;20028;-61
2022/08/03 08:28:12;;;;;;;1.23;1.13;;;32.00;99.90;;;;;;5216639;28;20032;-62
2022/08/03 08:30:43;;;;;;;1.33;1.23;;;32.10;99.90;;;;;;5216746;28;20241;-63
2022/08/03 08:33:16;;;;;;;4.72;1.35;;;32.50;99.90;;;;;;5197591;28;20229;-62
2022/08/03 08:35:51;;;;;;;1.15;1.05;;;31.90;99.90;;;;;;5189625;28;20027;-64
2022/08/03 08:38:25;;;;;;;1.25;1.00;;;32.00;99.90;;;;;;5196702;28;20253;-63
2022/08/03 08:40:56;;;;;;;1.50;1.40;;;31.90;99.90;;;;;;5207348;28;20033;-62
2022/08/03 08:43:29;;;;;;;1.05;0.95;;;32.20;99.90;;;;;;5216876;28;20029;-63
2022/08/03 08:46:07;;;;;;;1.40;1.30;;;32.60;99.90;;;;;;5215804;28;20017;-62
2022/08/03 08:48:45;;;;;;;1.63;1.20;;;32.70;99.90;;;;;;5216000;28;20024;-62
2022/08/03 08:51:24;;;;;;;1.40;1.30;;;32.70;99.90;;;;;;5179682;28;20044;-63
2022/08/03 08:54:06;;;;;;;1.50;1.40;;;32.70;99.90;;;;;;5195323;28;20021;-62
2022/08/03 08:56:37;;;;;;;1.00;1.00;;;32.30;99.90;;;;;;5186073;28;20383;-62
2022/08/03 08:59:09;;;;;;;1.35;1.25;;;32.70;99.90;;;;;;5196309;28;20381;-63
2022/08/03 09:01:40;;;;;;;1.63;1.00;;;33.00;99.90;;;;;;5196437;28;20023;-61
2022/08/03 09:04:12;;;;;;;1.33;1.23;;;33.40;99.90;;;;;;5203757;28;20027;-63
2022/08/03 09:06:43;;;;;;;1.00;1.00;;;33.50;99.90;;;;;;5216022;28;20068;-63
2022/08/03 09:09:14;;;;;;;1.30;1.20;;;33.70;99.90;;;;;;5214490;28;20453;-61
2022/08/03 09:11:49;;;;;;;1.73;1.17;;;33.60;99.90;;;;;;5224079;28;20031;-62
2022/08/03 09:14:21;;;;;;;1.10;1.00;;;33.50;99.90;;;;;;5217798;28;20021;-63
2022/08/03 09:17:03;;;;;;;1.30;1.20;;;33.10;99.90;;;;;;5196898;28;20375;-63
2022/08/03 09:19:35;;;;;;;1.38;1.25;;;32.90;99.90;;;;;;5231468;28;20218;-61
2022/08/03 09:22:08;;;;;;;1.52;1.30;;;32.70;99.90;;;;;;5182603;28;20489;-62
2022/08/03 09:25:10;;;;;;;1.10;1.00;;;33.30;99.90;;;;;;5194717;28;20025;-64
2022/08/03 09:27:43;;;;;;;1.20;1.10;;;33.20;99.90;;;;;;5197861;28;20029;-63
2022/08/03 09:30:17;;;;;;;1.17;1.03;;;33.80;99.90;;;;;;5214064;28;20029;-64
2022/08/03 09:32:48;;;;;;;4.25;1.10;;;34.00;99.90;;;;;;5225495;28;20229;-61
2022/08/03 09:35:26;;;;;;;1.35;1.23;;;34.40;99.90;;;;;;5205257;28;20043;-63
2022/08/03 09:38:12;;;;;;;0.95;0.95;;;34.20;99.90;;;;;;5196355;28;20013;-63
2022/08/03 09:40:45;;;;;;;1.30;1.20;;;34.50;99.90;;;;;;5208726;28;20028;-63
2022/08/03 09:43:18;;;;;;;1.15;0.93;;;34.70;99.90;;;;;;5198282;28;20036;-64
2022/08/03 09:45:51;;;;;;;1.27;1.17;;;34.40;99.90;;;;;;5205773;28;20494;-63
2022/08/03 09:48:34;;;;;;;1.07;1.07;;;34.50;99.90;;;;;;5205134;28;20021;-64
2022/08/03 09:51:06;;;;;;;1.20;1.10;;;34.90;99.90;;;;;;5214358;28;20342;-62
2022/08/03 09:53:43;;;;;;;1.17;1.08;;;34.80;99.90;;;;;;5218184;28;20021;-64
2022/08/03 09:56:16;;;;;;;0.88;0.88;;;34.40;99.90;;;;;;5198276;28;20042;-62
2022/08/03 09:58:50;;;;;;;1.30;1.20;;;34.10;99.90;;;;;;5223880;28;20025;-63
2022/08/03 10:01:32;;;;;;;0.80;0.80;;;34.50;99.90;;;;;;5242976;28;20033;-64
2022/08/03 10:04:15;;;;;;;1.35;0.90;;;35.20;99.90;;;;;;5224782;28;20320;-62
2022/08/03 10:07:08;;;;;;;1.20;1.10;;;34.70;99.90;;;;;;5198598;28;20322;-63
2022/08/03 10:09:55;;;;;;;0.80;0.80;;;34.00;99.90;;;;;;5241583;28;20036;-63
2022/08/03 10:12:27;;;;;;;0.93;0.93;;;34.10;99.90;;;;;;5239393;28;20037;-64
2022/08/03 10:14:59;;;;;;;0.93;0.90;;;34.10;99.90;;;;;;5213861;28;20286;-62
2022/08/03 10:17:30;;;;;;;2.03;0.90;;;33.90;99.90;;;;;;5212796;28;20025;-63
2022/08/03 10:20:05;;;;;;;1.40;1.08;;;33.40;99.90;;;;;;5201325;28;20054;-62
2022/08/03 10:22:41;;;;;;;1.10;1.00;;;33.50;99.90;;;;;;5199022;28;20051;-62
2022/08/03 10:25:20;;;;;;;1.00;0.90;;;32.80;99.90;;;;;;5222239;28;20036;-61
2022/08/03 10:27:52;;;;;;;1.58;1.10;;;33.10;99.90;;;;;;5208340;28;20039;-62
2022/08/03 10:30:26;;;;;;;1.30;1.20;;;34.10;99.90;;;;;;5234444;28;20031;-65
2022/08/03 10:33:06;;;;;;;1.20;1.10;;;35.50;99.90;;;;;;5238562;28;20021;-63
2022/08/03 10:35:40;;;;;;;1.00;0.90;;;35.30;99.90;;;;;;5200696;28;20326;-63
2022/08/03 10:38:16;;;;;;;1.27;1.17;;;36.90;99.90;;;;;;5198937;28;20037;-62
2022/08/03 10:40:52;;;;;;;1.40;1.10;;;37.70;99.90;;;;;;5201260;28;20322;-61
2022/08/03 10:43:29;;;;;;;1.33;1.23;;;39.40;98.80;;;;;;5227670;28;20194;-64
2022/08/03 10:46:04;;;;;;;1.20;1.00;;;37.50;97.60;;;;;;5217540;28;20310;-62
2022/08/03 10:48:36;;;;;;;1.20;0.90;;;37.50;98.40;;;;;;5218824;28;20036;-63
2022/08/03 10:51:08;;;;;;;1.48;1.23;;;38.10;97.30;;;;;;5217620;28;20092;-62
2022/08/03 10:53:42;;;;;;;0.93;0.93;;;38.70;97.40;;;;;;5215685;28;20029;-63
2022/08/03 10:59:49;;;;;;;1.42;1.20;;;40.30;95.00;;;;;;5227455;28;20028;-65
2022/08/03 11:02:40;;;;;;;1.15;1.13;;;41.10;95.10;;;;;;5214726;28;20020;-63
2022/08/03 11:05:42;;;;;;;1.00;0.90;;;42.50;92.00;;;;;;5204230;28;20590;-63
2022/08/03 11:08:28;;;;;;;0.98;0.98;;;41.30;91.60;;;;;;5180489;28;20039;-62
2022/08/03 11:11:27;;;;;;;0.90;0.90;;;41.30;88.10;;;;;;5209182;28;20021;-62
2022/08/03 11:14:06;;;;;;;0.90;0.90;;;41.60;86.80;;;;;;5209732;28;20032;-64
2022/08/03 11:16:45;;;;;;;0.80;0.80;;;41.30;87.30;;;;;;5216130;28;20025;-62
2022/08/03 11:19:21;;;;;;;1.00;1.00;;;42.80;88.90;;;;;;5205521;28;20246;-64
2022/08/03 11:21:54;;;;;;;0.93;0.93;;;44.40;85.30;;;;;;5219058;28;20022;-62
2022/08/03 11:24:46;;;;;;;0.73;0.73;;;44.00;82.20;;;;;;5237410;28;20024;-63
2022/08/03 11:27:21;;;;;;;1.00;1.00;;;42.00;82.80;;;;;;5219175;28;20026;-65
2022/08/03 11:30:01;;;;;;;0.98;0.98;;;43.10;80.70;;;;;;5230119;28;20032;-62
2022/08/03 11:32:49;;;;;;;1.20;1.10;;;42.80;82.60;;;;;;5216980;28;20040;-61
2022/08/03 11:35:32;;;;;;;1.00;1.00;;;41.60;82.90;;;;;;5222433;28;20021;-62
2022/08/03 11:38:10;;;;;;;0.95;0.90;;;40.30;84.00;;;;;;5236407;28;20021;-62
2022/08/03 11:40:44;;;;;;;2.50;1.52;;;40.60;84.40;;;;;;5228394;28;20202;-62
2022/08/03 11:43:27;;;;;;;1.15;1.05;;;42.40;83.10;;;;;;5229969;28;20023;-62
2022/08/03 11:46:04;;;;;;;1.77;1.67;;;44.00;80.10;;;;;;5234952;28;20031;-62
2022/08/03 11:48:43;;;;;;;1.00;1.00;;;44.80;76.40;;;;;;5234905;28;20039;-63
2022/08/03 11:51:43;;;;;;;0.95;0.95;;;44.10;75.90;;;;;;5234284;28;20023;-65
2022/08/03 11:54:19;;;;;;;0.90;0.90;;;44.00;74.20;;;;;;5213757;28;20112;-63
2022/08/03 11:56:52;;;;;;;1.05;1.05;;;43.30;75.70;;;;;;5215189;28;20023;-65
2022/08/03 11:59:35;;;;;;;1.00;1.00;;;43.40;76.80;;;;;;5197973;28;20404;-63
2022/08/03 12:02:15;;;;;;;1.17;1.00;;;44.20;74.90;;;;;;5197176;28;20024;-62
2022/08/03 12:05:01;;;;;;;1.30;1.20;;;44.20;76.10;;;;;;5185154;28;20041;-64
2022/08/03 12:07:35;;;;;;;1.10;1.00;;;44.00;74.50;;;;;;5182541;28;20029;-62
2022/08/03 12:10:07;;;;;;;1.10;1.00;;;44.50;74.20;;;;;;5191419;28;20238;-61
2022/08/03 12:12:45;;;;;;;1.25;1.15;;;44.10;72.70;;;;;;5210609;28;20024;-61
2022/08/03 12:15:24;;;;;;;1.40;1.17;;;43.80;73.50;;;;;;5208103;28;20246;-65
2022/08/03 12:17:59;;;;;;;1.30;1.20;;;45.40;73.60;;;;;;5216508;28;20038;-65
2022/08/03 12:20:33;;;;;;;1.40;1.30;;;46.80;70.40;;;;;;5215344;28;20226;-63
2022/08/03 12:23:14;;;;;;;1.70;1.60;;;47.60;69.80;;;;;;5213267;28;20028;-62
2022/08/03 12:25:47;;;;;;;1.23;1.23;;;47.10;67.90;;;;;;5224724;28;20017;-63
2022/08/03 12:28:23;;;;;;;1.63;1.35;;;46.90;71.20;;;;;;5225638;28;20043;-63
2022/08/03 12:31:00;;;;;;;1.70;1.40;;;48.20;68.30;;;;;;5217932;28;20020;-61
2022/08/03 12:33:56;;;;;;;1.35;1.25;;;48.50;66.70;;;;;;5216078;28;20303;-65
2022/08/03 12:36:40;;;;;;;1.50;1.30;;;46.30;68.00;;;;;;5197159;28;20380;-64
2022/08/03 12:39:12;;;;;;;1.33;1.23;;;45.50;68.80;;;;;;5215658;28;20025;-63
2022/08/03 12:41:44;;;;;;;1.00;1.00;;;44.50;69.60;;;;;;5214780;28;20017;-63
2022/08/03 12:44:17;;;;;;;1.20;1.10;;;42.70;69.30;;;;;;5214825;28;20024;-64
2022/08/03 12:46:56;;;;;;;;;;;43.20;70.00;;;;;;5197456;28;20017;-64
2022/08/03 12:49:43;;;;;;;1.10;1.10;;;44.70;70.00;;;;;;5213978;28;19908;-64
2022/08/03 12:52:17;;;;;;;1.23;1.17;;;45.50;67.80;;;;;;5213111;28;20028;-63
2022/08/03 12:54:58;;;;;;;;;;;46.30;67.20;;;;;;5196540;28;20051;-63
2022/08/03 12:57:43;;;;;;;1.70;1.35;;;47.10;68.50;;;;;;5214754;28;19901;-63
2022/08/03 13:00:17;;;;;;;1.05;0.98;;;46.50;65.60;;;;;;5209617;28;20025;-63
2022/08/03 13:03:02;;;;;;;1.10;1.00;;;43.10;68.20;;;;;;5207210;28;20040;-61
2022/08/03 13:05:48;;;;;;;0.98;0.98;;;42.10;68.60;;;;;;5203366;28;20051;-63
2022/08/03 13:08:26;;;;;;;1.23;1.10;;;41.80;69.90;;;;;;5213377;28;20039;-64
2022/08/03 13:11:16;;;;;;;1.70;1.15;;;43.60;70.10;;;;;;5213685;28;20027;-62
2022/08/03 13:13:49;;;;;;;1.33;1.23;;;44.10;68.60;;;;;;5210185;28;20184;-63
2022/08/03 13:16:22;;;;;;;;;;;45.50;67.30;;;;;;5215063;28;20039;-62
2022/08/03 13:18:57;;;;;;;1.42;1.25;;;45.80;67.00;;;;;;5213113;28;19932;-62
2022/08/03 13:21:28;;;;;;;1.52;1.05;;;44.30;67.50;;;;;;5214586;28;20368;-63
2022/08/03 13:24:05;;;;;;;2.05;1.85;;;44.00;68.70;;;;;;5216126;28;20051;-62
2022/08/03 13:26:41;;;;;;;1.00;1.00;;;44.60;68.10;;;;;;5218105;28;20044;-62
2022/08/03 13:29:15;;;;;;;1.15;1.08;;;43.40;68.10;;;;;;5197029;28;20048;-63
2022/08/03 13:31:46;;;;;;;1.10;1.10;;;42.20;69.00;;;;;;5216901;28;20033;-64
2022/08/03 13:34:19;;;;;;;1.15;1.10;;;42.20;69.70;;;;;;5205743;28;20047;-62
2022/08/03 13:36:55;;;;;;;1.40;1.30;;;43.70;67.90;;;;;;5215454;28;20201;-63
2022/08/03 13:39:26;;;;;;;1.20;1.10;;;45.00;67.10;;;;;;5199159;28;20044;-63
2022/08/03 13:41:58;;;;;;;1.40;1.30;;;44.00;67.50;;;;;;5224476;28;20040;-63
2022/08/03 13:44:35;;;;;;;1.60;1.50;;;44.50;68.40;;;;;;5167669;28;20333;-64
2022/08/03 13:47:06;;;;;;;1.30;1.20;;;44.90;66.80;;;;;;5217580;28;20408;-63
2022/08/03 13:49:38;;;;;;;1.23;1.13;;;44.10;67.40;;;;;;5231297;28;20024;-66
2022/08/03 13:52:14;;;;;;;1.83;1.08;;;44.30;67.50;;;;;;5224535;28;20286;-63
2022/08/03 13:54:48;;;;;;;1.40;1.30;;;45.00;68.10;;;;;;5211826;28;20028;-65
2022/08/03 13:57:19;;;;;;;1.33;1.23;;;43.90;68.00;;;;;;5182243;28;20031;-63
2022/08/03 13:59:51;;;;;;;1.20;1.10;;;42.80;68.60;;;;;;5199754;28;20035;-62